Time;durP1;ratioP1;P1;durP2;ratioP2;P2;SDS_P1;SDS_P2;PMS_P1;PMS_P2;Temp;Humidity;BMP_temperature;BMP_pressure;BME280_temperature;BME280_humidity;BME280_pressure;Samples;Min_cycle;Max_cycle;Signal;HPM_P1;HPM_P2
2023/10/01 00:00:09;;;;;;;10.90;9.60;;;;;;;12.57;82.74;98950.25;5039342;28;20239;-71
2023/10/01 00:02:37;;;;;;;11.38;10.18;;;;;;;12.64;82.11;98943.00;5042245;28;20197;-71
2023/10/01 00:05:05;;;;;;;14.30;10.47;;;;;;;12.63;81.99;98948.63;5046259;28;20288;-71
2023/10/01 00:07:36;;;;;;;12.60;10.37;;;;;;;12.52;82.60;98941.00;5036542;28;21001;-71
2023/10/01 00:10:10;;;;;;;13.00;11.70;;;;;;;12.32;83.83;98940.78;5050882;28;20858;-71
2023/10/01 00:12:38;;;;;;;16.15;13.25;;;;;;;12.36;83.28;98936.63;5045995;28;20224;-71
2023/10/01 00:15:10;;;;;;;14.90;11.10;;;;;;;12.20;83.70;98936.88;5033709;28;20208;-71
2023/10/01 00:17:37;;;;;;;11.38;10.00;;;;;;;12.10;84.33;98935.28;5036907;28;20390;-71
2023/10/01 00:20:09;;;;;;;12.82;11.50;;;;;;;12.02;84.81;98929.13;5031919;28;20205;-72
2023/10/01 00:22:37;;;;;;;15.18;11.75;;;;;;;11.88;85.67;98933.53;5034224;28;20209;-71
2023/10/01 00:25:06;;;;;;;14.63;11.18;;;;;;;11.75;86.83;98926.03;5033525;28;20193;-72
2023/10/01 00:27:33;;;;;;;12.10;10.80;;;;;;;11.89;86.24;98918.09;5034350;28;20841;-72
2023/10/01 00:29:59;;;;;;;12.30;10.98;;;;;;;11.72;87.13;98925.56;5029809;28;20229;-71
2023/10/01 00:32:29;;;;;;;12.50;11.20;;;;;;;11.61;87.62;98926.88;5033895;28;20198;-72
2023/10/01 00:34:57;;;;;;;13.10;11.20;;;;;;;11.73;87.07;98925.38;5034949;28;20292;-72
2023/10/01 00:37:24;;;;;;;11.80;10.55;;;;;;;11.59;87.59;98933.53;5031467;28;20716;-72
2023/10/01 00:39:54;;;;;;;15.98;12.55;;;;;;;11.49;88.36;98939.22;5033330;28;20772;-72
2023/10/01 00:42:23;;;;;;;14.65;11.85;;;;;;;11.47;88.83;98933.13;5035088;28;20676;-72
2023/10/01 00:44:50;;;;;;;14.13;12.20;;;;;;;11.48;88.68;98933.97;5040820;28;20202;-72
2023/10/01 00:47:17;;;;;;;14.13;11.50;;;;;;;11.58;88.06;98924.53;5031700;28;20312;-72
2023/10/01 00:49:46;;;;;;;14.73;11.25;;;;;;;11.53;88.35;98931.53;5031958;28;20284;-72
2023/10/01 00:52:13;;;;;;;15.63;12.30;;;;;;;11.35;89.56;98938.19;5034804;28;20209;-72
2023/10/01 00:54:40;;;;;;;17.27;13.38;;;;;;;11.37;89.77;98927.16;5047034;28;20301;-72
2023/10/01 00:57:08;;;;;;;14.75;13.07;;;;;;;11.43;89.59;98932.66;5036128;28;20333;-72
2023/10/01 00:59:36;;;;;;;14.13;12.63;;;;;;;11.38;89.29;98929.66;5046201;28;20836;-72
2023/10/01 01:02:06;;;;;;;14.52;12.88;;;;;;;11.26;89.85;98920.31;5039400;28;20197;-72
2023/10/01 01:04:36;;;;;;;15.00;11.32;;;;;;;11.34;89.52;98936.50;5038712;28;20263;-72
2023/10/01 01:07:14;;;;;;;14.88;12.85;;;;;;;11.43;89.83;98938.06;5030014;28;20311;-72
2023/10/01 01:09:41;;;;;;;15.68;13.07;;;;;;;11.28;90.20;98928.25;5032205;28;20197;-72
2023/10/01 01:12:09;;;;;;;13.48;11.95;;;;;;;11.28;90.36;98926.41;5031140;28;20201;-72
2023/10/01 01:14:37;;;;;;;14.55;11.88;;;;;;;11.25;90.40;98932.19;5039998;28;20216;-72
2023/10/01 01:17:04;;;;;;;16.45;12.55;;;;;;;11.28;90.30;98930.97;5031758;28;20280;-72
2023/10/01 01:19:34;;;;;;;14.98;12.45;;;;;;;11.28;90.43;98926.41;5031596;28;20671;-72
2023/10/01 01:22:02;;;;;;;13.95;11.82;;;;;;;11.38;90.07;98926.94;5029812;28;20210;-72
2023/10/01 01:24:30;;;;;;;14.98;12.43;;;;;;;11.36;89.90;98925.47;5035133;28;20202;-72
2023/10/01 01:27:00;;;;;;;14.50;12.48;;;;;;;11.32;90.11;98914.16;5041204;28;20236;-72
2023/10/01 01:29:30;;;;;;;15.13;12.73;;;;;;;11.35;90.42;98921.94;5039554;28;20225;-72
2023/10/01 01:32:07;;;;;;;14.23;12.52;;;;;;;11.32;90.47;98922.28;5048549;28;20287;-72
2023/10/01 01:34:35;;;;;;;19.98;12.27;;;;;;;11.37;89.97;98919.84;5035652;28;20292;-72
2023/10/01 01:37:05;;;;;;;14.65;13.15;;;;;;;11.44;89.75;98919.94;5038896;28;20224;-72
2023/10/01 01:39:45;;;;;;;15.02;12.68;;;;;;;11.41;89.87;98925.72;5036632;28;20205;-72
2023/10/01 01:42:12;;;;;;;14.55;12.10;;;;;;;11.38;90.12;98923.41;5030644;28;20284;-72
2023/10/01 01:44:39;;;;;;;17.30;12.63;;;;;;;11.36;90.32;98920.06;5040995;28;20746;-72
2023/10/01 01:47:07;;;;;;;14.30;11.70;;;;;;;11.35;90.16;98919.22;5030393;28;20620;-72
2023/10/01 01:49:34;;;;;;;17.02;13.80;;;;;;;11.35;90.19;98918.38;5039840;28;20206;-72
2023/10/01 01:52:03;;;;;;;14.48;12.27;;;;;;;11.43;89.84;98910.13;5028557;28;20561;-72
2023/10/01 01:54:31;;;;;;;16.70;13.18;;;;;;;11.32;89.93;98914.16;5037681;28;20232;-72
2023/10/01 01:57:00;;;;;;;14.88;13.38;;;;;;;11.36;89.92;98901.94;5031931;28;20221;-72
2023/10/01 01:59:28;;;;;;;15.55;13.00;;;;;;;11.35;89.81;98905.66;5035975;28;20196;-72
2023/10/01 02:01:56;;;;;;;16.02;13.40;;;;;;;11.30;89.71;98908.09;5029927;28;20201;-72
2023/10/01 02:04:23;;;;;;;13.27;11.88;;;;;;;11.32;89.85;98899.78;5034494;28;20189;-72
2023/10/01 02:06:51;;;;;;;14.20;12.70;;;;;;;11.26;89.93;98906.75;5032510;28;20253;-72
2023/10/01 02:09:20;;;;;;;15.68;13.18;;;;;;;11.14;90.32;98891.13;5029120;28;20306;-72
2023/10/01 02:11:48;;;;;;;19.27;13.45;;;;;;;11.05;90.70;98879.53;5037197;28;20197;-72
2023/10/01 02:17:03;;;;;;;17.23;13.25;;;;;;;11.03;90.82;98896.00;5032514;28;20260;-71
2023/10/01 02:19:30;;;;;;;16.63;13.57;;;;;;;11.11;90.69;98903.19;5040676;28;20617;-72
2023/10/01 02:22:02;;;;;;;16.65;13.05;;;;;;;11.19;90.62;98894.13;5031766;28;20201;-72
2023/10/01 02:24:44;;;;;;;13.82;12.27;;;;;;;11.19;90.28;98894.13;5042115;28;20216;-72
2023/10/01 02:27:12;;;;;;;15.57;12.60;;;;;;;11.06;90.91;98898.31;5035114;28;20220;-72
2023/10/01 02:30:11;;;;;;;13.00;11.60;;;;;;;11.08;90.88;98898.13;5026519;28;20639;-72
2023/10/01 02:32:35;;;;;;;15.13;13.50;;;;;;;11.00;90.71;98895.53;5037006;28;20512;-72
2023/10/01 02:35:33;;;;;;;14.18;12.25;;;;;;;11.07;90.66;98891.03;5037915;28;20197;-72
2023/10/01 02:37:50;;;;;;;16.52;12.40;;;;;;;11.07;90.36;98891.03;5033928;28;20311;-72
2023/10/01 02:40:18;;;;;;;16.08;12.82;;;;;;;11.06;90.43;98890.19;5031050;28;20317;-71
2023/10/01 02:42:49;;;;;;;15.40;12.55;;;;;;;11.05;89.99;98885.78;5042774;28;21105;-72
2023/10/01 02:48:16;;;;;;;14.32;12.15;;;;;;;10.98;89.69;98886.72;5029961;28;20652;-72
2023/10/01 02:50:51;;;;;;;16.17;13.18;;;;;;;10.94;90.38;98885.41;5033846;28;20232;-72
2023/10/01 02:53:20;;;;;;;15.25;12.27;;;;;;;10.86;90.55;98885.47;5035318;28;20207;-72
2023/10/01 02:55:47;;;;;;;15.02;11.95;;;;;;;10.88;90.13;98886.13;5031782;28;20259;-71
2023/10/01 02:58:27;;;;;;;14.80;12.40;;;;;;;11.00;89.82;98884.69;5033509;28;20225;-71
2023/10/01 03:00:54;;;;;;;14.75;12.43;;;;;;;10.85;90.00;98881.09;5034062;28;20554;-72
2023/10/01 03:03:31;;;;;;;14.38;11.70;;;;;;;10.84;90.38;98880.25;5032526;28;20252;-72
2023/10/01 03:05:58;;;;;;;14.18;10.40;;;;;;;10.85;89.90;98889.22;5029405;28;20362;-71
2023/10/01 03:08:59;;;;;;;14.50;12.10;;;;;;;10.75;90.30;98890.31;5029842;28;20720;-72
2023/10/01 03:11:34;;;;;;;15.02;11.90;;;;;;;10.82;90.04;98890.41;5036065;28;20280;-71
2023/10/01 03:14:08;;;;;;;13.90;10.85;;;;;;;10.88;89.94;98891.56;5029964;28;20210;-71
2023/10/01 03:16:42;;;;;;;13.95;11.30;;;;;;;10.82;90.04;98881.44;5029824;28;20265;-72
2023/10/01 03:19:24;;;;;;;14.20;11.80;;;;;;;10.75;90.09;98865.94;5030318;28;20224;-71
2023/10/01 03:24:41;;;;;;;16.27;11.70;;;;;;;10.85;90.57;98881.94;5040543;28;20199;-72
2023/10/01 03:27:19;;;;;;;13.45;11.30;;;;;;;10.75;90.96;98884.03;5029591;28;20216;-73
2023/10/01 03:29:48;;;;;;;13.00;10.85;;;;;;;10.74;90.85;98875.06;5037023;28;20224;-72
2023/10/01 03:32:29;;;;;;;13.52;10.95;;;;;;;10.73;90.52;98881.50;5033133;28;20221;-72
2023/10/01 03:34:58;;;;;;;14.18;11.85;;;;;;;10.74;90.35;98888.63;5037271;28;20207;-72
2023/10/01 03:37:27;;;;;;;12.80;11.40;;;;;;;10.57;90.69;98876.25;5036169;28;20228;-72
2023/10/01 03:40:04;;;;;;;14.45;11.20;;;;;;;10.55;90.78;98886.41;5034768;28;20212;-71
2023/10/01 03:42:33;;;;;;;13.43;11.35;;;;;;;10.47;91.02;98886.47;5040687;28;20193;-72
2023/10/01 03:45:19;;;;;;;13.20;11.82;;;;;;;10.37;91.25;98877.78;5032386;28;20656;-71
2023/10/01 03:47:55;;;;;;;17.02;11.60;;;;;;;10.38;91.32;98879.47;5031934;28;20235;-72
2023/10/01 03:50:25;;;;;;;15.93;12.13;;;;;;;10.32;90.73;98875.59;5027577;28;20204;-72
2023/10/01 03:52:54;;;;;;;14.38;11.63;;;;;;;10.32;91.21;98880.19;5038912;28;20295;-72
2023/10/01 03:55:28;;;;;;;15.98;11.70;;;;;;;10.32;91.13;98880.19;5039759;28;20201;-72
2023/10/01 03:57:56;;;;;;;15.20;11.20;;;;;;;10.24;91.27;98882.94;5031752;28;20211;-71
2023/10/01 04:00:34;;;;;;;12.73;10.70;;;;;;;10.23;91.37;98881.25;5032769;28;20220;-72
2023/10/01 04:03:03;;;;;;;16.13;12.10;;;;;;;10.15;91.85;98876.69;5043036;28;20253;-71
2023/10/01 04:05:33;;;;;;;17.33;13.38;;;;;;;10.11;92.51;98873.50;5032921;28;20241;-71
2023/10/01 04:08:06;;;;;;;14.45;12.30;;;;;;;10.04;92.62;98874.41;5031507;28;20225;-71
2023/10/01 04:10:34;;;;;;;14.63;11.65;;;;;;;10.13;92.75;98875.19;5034594;28;20204;-72
2023/10/01 04:13:12;;;;;;;14.07;12.30;;;;;;;10.11;93.05;98878.91;5035601;28;20212;-72
2023/10/01 04:15:43;;;;;;;15.52;12.43;;;;;;;10.07;93.53;98869.47;5032662;28;20589;-72
2023/10/01 04:18:19;;;;;;;14.63;13.10;;;;;;;10.15;93.33;98865.03;5031936;28;20209;-72
2023/10/01 04:21:24;;;;;;;16.50;12.88;;;;;;;10.11;93.36;98868.09;5033692;28;20199;-72
2023/10/01 04:23:47;;;;;;;17.75;14.10;;;;;;;10.16;93.57;98867.56;5027685;28;20194;-71
2023/10/01 04:26:16;;;;;;;16.40;13.55;;;;;;;10.00;94.12;98875.78;5031281;28;20259;-71
2023/10/01 04:28:44;;;;;;;20.02;14.23;;;;;;;10.07;94.25;98871.34;5039122;28;20232;-72
2023/10/01 04:31:15;;;;;;;15.35;13.68;;;;;;;10.07;94.36;98865.94;5041003;28;20207;-72
2023/10/01 04:33:47;;;;;;;17.98;14.25;;;;;;;10.08;94.11;98867.59;5027746;28;20729;-72
2023/10/01 04:36:16;;;;;;;16.85;14.25;;;;;;;10.10;94.49;98862.84;5035398;28;20225;-72
2023/10/01 04:38:44;;;;;;;18.20;14.52;;;;;;;10.06;94.26;98862.41;5037151;28;20201;-72
2023/10/01 04:41:16;;;;;;;17.73;14.40;;;;;;;10.04;94.51;98863.59;5030286;28;20307;-72
2023/10/01 04:43:51;;;;;;;18.55;15.68;;;;;;;9.93;94.71;98859.41;5040162;28;20232;-71
2023/10/01 04:46:20;;;;;;;16.42;14.73;;;;;;;9.97;94.35;98860.75;5035423;28;20228;-72
2023/10/01 04:48:50;;;;;;;16.42;13.95;;;;;;;9.98;94.68;98846.22;5031191;28;20237;-71
2023/10/01 04:51:21;;;;;;;17.95;14.63;;;;;;;9.95;94.72;98851.13;5031930;28;20211;-72
2023/10/01 04:53:48;;;;;;;16.52;14.07;;;;;;;9.85;94.91;98851.34;5031825;28;21687;-74
2023/10/01 04:56:20;;;;;;;16.50;14.27;;;;;;;9.91;95.01;98856.06;5034219;28;20995;-74
2023/10/01 04:58:51;;;;;;;16.52;14.70;;;;;;;9.90;95.24;98854.38;5032929;28;20228;-74
2023/10/01 05:01:23;;;;;;;18.70;15.30;;;;;;;9.91;95.10;98858.75;5036048;28;20211;-74
2023/10/01 05:03:54;;;;;;;17.38;15.35;;;;;;;9.91;95.41;98868.72;5033329;28;20205;-74
2023/10/01 05:06:22;;;;;;;20.88;16.48;;;;;;;9.78;96.14;98867.44;5034395;28;20326;-74
2023/10/01 05:08:53;;;;;;;17.48;15.60;;;;;;;9.75;95.70;98864.22;5034489;28;20243;-75
2023/10/01 05:11:22;;;;;;;17.70;15.18;;;;;;;9.87;95.87;98881.75;5039984;28;20216;-75
2023/10/01 05:13:51;;;;;;;19.02;17.02;;;;;;;9.85;95.86;98882.94;5036843;28;20204;-75
2023/10/01 05:16:26;;;;;;;19.05;15.38;;;;;;;9.86;95.87;98879.22;5039738;28;20230;-74
2023/10/01 05:21:46;;;;;;;20.35;15.50;;;;;;;10.03;95.35;98897.91;5038866;28;20212;-75
2023/10/01 05:24:16;;;;;;;20.67;16.17;;;;;;;10.00;95.22;98897.41;5035079;28;20330;-73
2023/10/01 05:26:44;;;;;;;20.08;16.05;;;;;;;9.93;95.53;98902.69;5034217;28;20217;-73
2023/10/01 05:29:13;;;;;;;19.05;16.05;;;;;;;9.84;95.88;98892.91;5039495;28;20771;-73
2023/10/01 05:31:41;;;;;;;20.35;16.20;;;;;;;9.91;96.04;98899.31;5040960;28;20196;-73
2023/10/01 05:34:11;;;;;;;19.98;15.48;;;;;;;9.88;95.80;98898.81;5030268;28;20223;-73
2023/10/01 05:36:38;;;;;;;18.13;15.88;;;;;;;9.88;96.22;98905.06;5035348;28;20312;-72
2023/10/01 05:39:11;;;;;;;19.80;15.60;;;;;;;9.92;96.17;98901.00;5039041;28;20939;-71
2023/10/01 05:41:44;;;;;;;18.33;15.32;;;;;;;10.04;95.88;98904.16;5039047;28;20197;-71
2023/10/01 05:44:12;;;;;;;16.92;15.15;;;;;;;10.04;95.58;98907.72;5036239;28;20228;-76
2023/10/01 05:46:40;;;;;;;19.25;14.88;;;;;;;10.18;95.51;98910.66;5037529;28;20216;-72
2023/10/01 05:49:08;;;;;;;18.80;14.98;;;;;;;10.30;95.42;98920.09;5029570;28;20602;-72
2023/10/01 05:51:45;;;;;;;17.75;14.48;;;;;;;10.52;94.29;98913.00;5034512;28;20767;-72
2023/10/01 05:54:18;;;;;;;17.38;14.40;;;;;;;10.74;93.65;98915.69;5029863;28;20196;-72
2023/10/01 05:56:48;;;;;;;16.48;13.55;;;;;;;10.88;92.45;98911.34;5042306;28;20311;-72
2023/10/01 05:59:20;;;;;;;14.23;12.27;;;;;;;11.12;91.06;98913.00;5039587;28;20228;-72
2023/10/01 06:01:48;;;;;;;17.08;12.82;;;;;;;11.27;90.17;98913.88;5029942;28;20232;-72
2023/10/01 06:04:17;;;;;;;13.70;11.68;;;;;;;11.32;89.45;98916.88;5026690;28;20205;-72
2023/10/01 06:06:46;;;;;;;14.20;11.45;;;;;;;11.56;88.49;98909.50;5035362;28;20305;-74
2023/10/01 06:09:15;;;;;;;16.20;12.15;;;;;;;11.71;87.10;98926.59;5038434;28;20221;-71
2023/10/01 06:11:48;;;;;;;12.95;11.52;;;;;;;11.97;85.78;98929.72;5043682;28;20193;-72
2023/10/01 06:14:38;;;;;;;13.98;11.00;;;;;;;11.88;85.46;98938.97;5029825;28;20655;-71
2023/10/01 06:17:07;;;;;;;12.75;11.40;;;;;;;11.99;85.61;98938.50;5031987;28;20231;-70
2023/10/01 06:19:38;;;;;;;14.40;11.70;;;;;;;12.26;83.38;98931.53;5031119;28;20282;-71
2023/10/01 06:22:22;;;;;;;14.90;10.98;;;;;;;12.33;82.94;98932.44;5031536;28;20677;-71
2023/10/01 06:24:49;;;;;;;12.93;11.18;;;;;;;12.01;84.37;98927.47;5027954;28;20221;-70
2023/10/01 06:27:18;;;;;;;13.43;12.05;;;;;;;11.85;85.18;98933.91;5034889;28;20206;-71
2023/10/01 06:29:50;;;;;;;12.95;11.65;;;;;;;12.10;84.14;98920.88;5036850;28;20262;-72
2023/10/01 06:32:20;;;;;;;12.95;11.13;;;;;;;11.98;84.98;98925.13;5030861;28;20201;-71
2023/10/01 06:34:49;;;;;;;13.30;11.30;;;;;;;12.00;84.61;98921.19;5030822;28;20215;-71
2023/10/01 06:37:19;;;;;;;16.00;11.25;;;;;;;11.77;85.19;98921.28;5032455;28;20201;-71
2023/10/01 06:39:46;;;;;;;12.13;10.18;;;;;;;12.07;84.63;98922.09;5036155;28;20650;-70
2023/10/01 06:42:19;;;;;;;12.73;11.38;;;;;;;12.37;83.07;98920.13;5035247;28;20202;-70
2023/10/01 06:44:49;;;;;;;11.93;10.55;;;;;;;12.65;81.94;98909.38;5031387;28;20286;-71
2023/10/01 06:47:16;;;;;;;13.90;11.20;;;;;;;13.08;79.92;98926.47;5035917;28;20280;-71
2023/10/01 06:49:56;;;;;;;14.00;10.35;;;;;;;13.36;78.55;98923.81;5036379;28;20538;-71
2023/10/01 06:52:28;;;;;;;15.17;10.27;;;;;;;13.49;77.30;98923.06;5026986;28;20196;-71
2023/10/01 06:54:57;;;;;;;13.57;10.73;;;;;;;13.72;76.91;98928.22;5030193;28;20952;-71
2023/10/01 06:57:27;;;;;;;12.77;9.67;;;;;;;14.28;74.90;98933.53;5034365;28;20284;-71
2023/10/01 06:59:56;;;;;;;13.90;10.40;;;;;;;14.47;73.51;98943.69;5035091;28;20453;-71
2023/10/01 07:02:23;;;;;;;12.97;10.23;;;;;;;15.09;70.92;98937.06;5024568;28;20834;-71
2023/10/01 07:04:56;;;;;;;10.80;9.70;;;;;;;15.33;70.11;98933.72;5028863;28;20553;-73
2023/10/01 07:07:26;;;;;;;12.90;10.60;;;;;;;15.70;67.93;98920.47;5033620;28;20484;-75
2023/10/01 07:09:56;;;;;;;12.23;10.93;;;;;;;15.69;67.87;98948.81;5035543;28;20484;-71
2023/10/01 07:12:23;;;;;;;10.13;9.10;;;;;;;15.70;68.76;98945.03;5033062;28;20449;-71
2023/10/01 07:14:51;;;;;;;14.03;9.20;;;;;;;15.84;67.58;98943.97;5035365;28;20471;-72
2023/10/01 07:17:23;;;;;;;10.53;9.33;;;;;;;16.09;66.50;98936.75;5024830;28;20554;-70
2023/10/01 07:19:59;;;;;;;11.70;9.50;;;;;;;16.58;64.91;98943.44;5018008;28;20472;-73
2023/10/01 07:22:30;;;;;;;12.33;9.43;;;;;;;16.36;65.05;98944.84;5032067;28;20463;-72
2023/10/01 07:24:59;;;;;;;11.00;9.33;;;;;;;16.41;65.33;98947.75;5028532;28;20494;-71
2023/10/01 07:27:27;;;;;;;10.87;9.23;;;;;;;16.58;64.74;98953.53;5034505;28;20568;-73
2023/10/01 07:29:55;;;;;;;10.60;9.00;;;;;;;16.93;63.30;98954.00;5036366;28;20495;-72
2023/10/01 07:32:24;;;;;;;10.40;8.67;;;;;;;17.44;62.15;98951.09;5036786;28;20458;-73
2023/10/01 07:34:55;;;;;;;11.10;9.30;;;;;;;17.96;60.25;98965.38;5031572;28;20856;-73
2023/10/01 07:37:26;;;;;;;10.43;8.63;;;;;;;18.31;58.96;98958.22;5027052;28;20463;-71
2023/10/01 07:39:55;;;;;;;9.33;8.33;;;;;;;18.55;57.33;98923.53;5033151;28;20562;-72
2023/10/01 07:42:23;;;;;;;9.47;8.40;;;;;;;19.18;56.06;98966.13;5030930;28;20448;-72
2023/10/01 07:44:50;;;;;;;10.43;8.13;;;;;;;19.60;54.58;98962.28;5034886;28;20535;-73
2023/10/01 07:47:29;;;;;;;10.20;8.50;;;;;;;19.87;53.83;98965.41;5027198;28;20483;-73
2023/10/01 07:49:57;;;;;;;9.33;8.33;;;;;;;20.03;52.91;98970.19;5028490;28;20580;-73
2023/10/01 07:52:24;;;;;;;10.27;8.17;;;;;;;20.42;52.24;98967.78;5038220;28;20467;-73
2023/10/01 07:54:51;;;;;;;13.53;9.37;;;;;;;20.57;51.57;98967.22;5029028;28;21256;-73
2023/10/01 07:57:27;;;;;;;10.70;8.83;;;;;;;19.70;54.29;98958.97;5031451;28;20466;-75
2023/10/01 07:59:55;;;;;;;9.80;8.80;;;;;;;20.06;53.00;98958.72;5025715;28;20458;-74
2023/10/01 08:02:25;;;;;;;10.60;8.60;;;;;;;20.25;52.70;98964.03;5028994;28;20520;-78
2023/10/01 08:04:58;;;;;;;10.20;9.20;;;;;;;20.79;51.43;98969.06;5033455;28;20472;-77
2023/10/01 08:07:42;;;;;;;10.67;9.57;;;;;;;20.75;50.75;98973.41;5019736;28;20982;-73
2023/10/01 08:10:17;;;;;;;10.53;9.23;;;;;;;20.74;51.18;98971.72;5030085;28;20496;-71
2023/10/01 08:15:57;;;;;;;10.00;9.00;;;;;;;21.17;50.38;98975.81;4981284;28;21031;-73
2023/10/01 08:18:36;;;;;;;10.40;9.30;;;;;;;21.58;48.81;98971.06;5027233;28;20459;-72
2023/10/01 08:21:03;;;;;;;14.23;9.90;;;;;;;21.64;48.54;98959.03;5027644;28;20542;-71
2023/10/01 08:23:33;;;;;;;10.43;8.70;;;;;;;21.50;49.26;98974.22;5030926;28;20834;-73
2023/10/01 08:26:39;;;;;;;9.47;8.47;;;;;;;22.19;47.87;98966.50;5023756;28;20494;-73
2023/10/01 08:28:57;;;;;;;9.00;7.83;;;;;;;22.60;46.58;98967.88;5031253;28;20463;-76
2023/10/01 08:34:23;;;;;;;11.70;9.20;;;;;;;22.02;48.05;98945.34;5021713;28;20514;-73
2023/10/01 08:36:54;;;;;;;9.50;8.50;;;;;;;22.52;46.86;98968.31;5028054;28;20565;-73
2023/10/01 08:39:33;;;;;;;9.47;8.30;;;;;;;22.94;45.18;98971.34;5034627;28;20621;-70
2023/10/01 08:42:08;;;;;;;9.73;8.70;;;;;;;23.38;44.73;98967.38;5030952;28;20452;-73
2023/10/01 08:44:44;;;;;;;10.67;8.97;;;;;;;23.24;44.21;98973.59;5026597;28;20452;-73
2023/10/01 08:47:21;;;;;;;10.23;9.13;;;;;;;23.46;43.90;98977.94;5037566;28;20497;-73
2023/10/01 08:49:50;;;;;;;9.63;8.63;;;;;;;23.94;42.51;98973.38;5034694;28;21077;-73
2023/10/01 08:52:19;;;;;;;9.63;8.73;;;;;;;24.35;42.18;98968.13;5030843;28;20495;-73
2023/10/01 08:54:48;;;;;;;9.17;8.23;;;;;;;24.34;41.50;98970.06;5037817;28;20520;-72
2023/10/01 08:57:18;;;;;;;8.83;7.93;;;;;;;24.24;41.59;98964.44;5035645;28;20981;-73
2023/10/01 08:59:46;;;;;;;8.43;7.60;;;;;;;24.88;39.49;98960.59;5025703;28;20959;-74
2023/10/01 09:02:19;;;;;;;7.97;7.03;;;;;;;25.40;38.88;98974.28;5026261;28;20535;-73
2023/10/01 09:04:45;;;;;;;10.80;7.50;;;;;;;26.16;37.41;98959.56;5032144;28;20478;-73
2023/10/01 09:07:18;;;;;;;9.97;7.77;;;;;;;26.19;37.66;98959.84;5029663;28;21302;-73
2023/10/01 09:10:06;;;;;;;8.07;7.27;;;;;;;26.50;36.78;98960.63;5029034;28;20484;-73
2023/10/01 09:12:35;;;;;;;8.33;7.53;;;;;;;25.81;37.94;98960.47;5022674;28;20456;-73
2023/10/01 09:15:05;;;;;;;8.80;7.90;;;;;;;25.80;37.91;98956.84;5020404;28;20596;-72
2023/10/01 09:17:44;;;;;;;8.30;7.43;;;;;;;25.29;39.43;98959.59;5027590;28;20452;-73
2023/10/01 09:20:17;;;;;;;9.80;8.23;;;;;;;25.98;37.59;98955.47;5026656;28;20465;-73
2023/10/01 09:22:59;;;;;;;10.83;7.87;;;;;;;25.88;38.28;98967.41;5030311;28;20456;-74
2023/10/01 09:25:26;;;;;;;8.60;7.77;;;;;;;25.18;39.72;98965.41;5027580;28;20479;-73
2023/10/01 09:27:59;;;;;;;8.37;7.30;;;;;;;25.85;38.57;98967.13;5028769;28;20807;-75
2023/10/01 09:30:31;;;;;;;9.67;7.23;;;;;;;26.46;37.38;98958.69;5027479;28;20570;-74
2023/10/01 09:33:05;;;;;;;8.87;7.50;;;;;;;26.54;37.36;98961.72;5027938;28;20951;-73
2023/10/01 09:35:42;;;;;;;9.13;7.60;;;;;;;25.59;38.51;98960.72;5028723;28;20483;-73
2023/10/01 09:38:11;;;;;;;8.23;7.40;;;;;;;26.36;37.40;98954.00;5029063;28;20936;-73
2023/10/01 09:40:41;;;;;;;7.70;6.90;;;;;;;26.86;36.53;98957.69;5025543;28;20518;-73
2023/10/01 09:43:18;;;;;;;7.70;6.90;;;;;;;27.41;35.14;98960.13;5029351;28;20959;-73
2023/10/01 09:45:47;;;;;;;8.50;7.60;;;;;;;26.93;36.15;98961.00;5028635;28;20487;-73
2023/10/01 09:48:29;;;;;;;7.77;6.97;;;;;;;27.33;34.82;98951.56;5022691;28;20559;-73
2023/10/01 09:51:08;;;;;;;8.50;7.07;;;;;;;27.56;33.96;98952.81;5028749;28;20480;-74
2023/10/01 09:53:48;;;;;;;6.57;5.97;;;;;;;27.34;34.95;98948.50;5023813;28;21040;-74
2023/10/01 09:56:25;;;;;;;7.70;6.70;;;;;;;26.73;35.75;98948.00;5021978;28;20567;-72
2023/10/01 09:58:58;;;;;;;8.60;6.70;;;;;;;27.06;35.05;98936.19;5020139;28;20512;-74
2023/10/01 10:01:28;;;;;;;7.73;6.43;;;;;;;27.53;35.72;98942.25;5025119;28;20890;-74
2023/10/01 10:03:59;;;;;;;7.67;6.87;;;;;;;28.04;34.68;98937.06;5023395;28;20534;-73
2023/10/01 10:06:26;;;;;;;10.80;7.70;;;;;;;27.47;34.63;98940.63;5022626;28;20848;-74
2023/10/01 10:09:03;;;;;;;6.97;6.27;;;;;;;28.36;33.49;98934.50;5027107;28;20464;-73
2023/10/01 10:11:36;;;;;;;7.90;7.10;;;;;;;27.21;34.57;98928.88;5030205;28;20489;-74
2023/10/01 10:14:06;;;;;;;7.30;6.60;;;;;;;26.71;36.15;98928.84;5025667;28;20975;-74
2023/10/01 10:16:57;;;;;;;6.40;5.80;;;;;;;26.60;36.31;98926.44;5027282;28;21030;-74
2023/10/01 10:19:24;;;;;;;7.03;6.33;;;;;;;27.40;34.52;98919.53;5027831;28;20451;-74
2023/10/01 10:22:16;;;;;;;7.70;6.43;;;;;;;27.77;33.93;98923.69;5026285;28;20488;-73
2023/10/01 10:24:47;;;;;;;6.67;5.60;;;;;;;28.33;32.60;98914.78;5023043;28;20511;-74
2023/10/01 10:27:47;;;;;;;7.40;5.27;;;;;;;28.44;32.41;98916.31;5026750;28;20455;-74
2023/10/01 10:30:21;;;;;;;6.90;6.20;;;;;;;28.72;31.55;98909.81;5031447;28;20529;-75
2023/10/01 10:36:51;;;;;;;6.90;5.50;;;;;;;28.85;31.62;98907.47;5032197;28;20479;-74
2023/10/01 10:40:26;;;;;;;6.70;5.80;;;;;;;29.18;30.79;98905.56;5016996;28;20456;-74
2023/10/01 10:43:17;;;;;;;7.30;5.93;;;;;;;28.12;31.38;98907.75;5024267;28;20468;-74
2023/10/01 10:46:04;;;;;;;6.97;6.00;;;;;;;28.92;30.64;98905.09;5024166;28;20496;-74
2023/10/01 10:48:59;;;;;;;7.50;6.70;;;;;;;29.20;30.52;98906.94;5026409;28;20971;-74
2023/10/01 10:51:46;;;;;;;7.57;6.40;;;;;;;29.14;30.41;98908.13;5027354;28;20633;-74
2023/10/01 10:54:16;;;;;;;9.20;7.30;;;;;;;28.98;30.09;98906.69;5025624;28;20447;-74
2023/10/01 10:56:44;;;;;;;7.30;6.60;;;;;;;29.05;29.60;98907.97;5031150;28;20463;-74
2023/10/01 10:59:13;;;;;;;8.10;6.73;;;;;;;28.15;31.18;98896.84;5020409;28;20444;-74
2023/10/01 11:01:44;;;;;;;7.33;6.63;;;;;;;28.37;31.55;98911.09;5016309;28;20452;-75
2023/10/01 11:04:12;;;;;;;8.17;6.60;;;;;;;29.42;30.14;98904.34;5025855;28;20462;-75
2023/10/01 11:06:42;;;;;;;7.70;6.90;;;;;;;30.28;28.10;98901.13;5026858;28;20538;-75
2023/10/01 11:09:24;;;;;;;8.00;6.70;;;;;;;30.36;28.59;98903.22;5025383;28;20455;-74
2023/10/01 11:11:52;;;;;;;7.73;6.90;;;;;;;30.22;28.99;98891.19;5028328;28;20582;-75
2023/10/01 11:14:20;;;;;;;8.40;6.73;;;;;;;29.86;29.26;98897.47;5025699;28;21189;-75
2023/10/01 11:16:48;;;;;;;9.37;7.53;;;;;;;28.91;30.50;98897.91;5023374;28;20947;-75
2023/10/01 11:19:17;;;;;;;9.03;6.70;;;;;;;29.07;30.51;98900.13;5027044;28;20911;-74
2023/10/01 11:21:54;;;;;;;9.30;7.17;;;;;;;28.45;31.32;98890.13;5031112;28;20479;-74
2023/10/01 11:24:25;;;;;;;10.17;7.40;;;;;;;28.47;30.72;98896.22;5026174;28;20483;-74
2023/10/01 11:27:14;;;;;;;7.50;6.80;;;;;;;26.71;33.67;98880.78;5026065;28;20550;-74
2023/10/01 11:29:43;;;;;;;7.10;6.40;;;;;;;27.41;33.26;98887.00;5021538;28;20459;-73
2023/10/01 11:32:16;;;;;;;7.50;6.70;;;;;;;28.36;31.83;98891.91;5016981;28;22116;-72
2023/10/01 11:34:45;;;;;;;8.07;7.27;;;;;;;28.76;30.46;98880.22;5027310;28;21015;-69
2023/10/01 11:37:16;;;;;;;8.23;6.83;;;;;;;28.63;30.62;98886.53;5024546;28;20459;-70
2023/10/01 11:39:50;;;;;;;8.30;7.07;;;;;;;28.94;30.73;98875.78;5025240;28;20664;-70
2023/10/01 11:42:35;;;;;;;7.77;6.97;;;;;;;28.17;31.58;98871.50;5017523;28;20467;-71
2023/10/01 11:45:28;;;;;;;8.63;7.10;;;;;;;28.73;30.83;98878.03;5027652;28;20486;-70
2023/10/01 11:48:05;;;;;;;8.80;7.00;;;;;;;28.51;31.06;98866.66;5031201;28;20462;-70
2023/10/01 11:50:33;;;;;;;8.50;7.27;;;;;;;29.07;30.05;98857.50;5032072;28;21026;-70
2023/10/01 11:53:04;;;;;;;8.20;7.37;;;;;;;28.81;29.96;98851.47;5025161;28;20459;-66
2023/10/01 11:55:33;;;;;;;6.67;6.07;;;;;;;27.94;31.93;98854.50;5022480;28;20483;-66
2023/10/01 11:58:00;;;;;;;7.83;6.67;;;;;;;28.08;31.68;98851.84;5028817;28;20460;-67
2023/10/01 12:00:52;;;;;;;8.73;7.10;;;;;;;27.64;33.15;98852.03;5023521;28;20498;-67
2023/10/01 12:03:19;;;;;;;8.10;7.17;;;;;;;28.16;31.93;98847.56;5032104;28;20849;-67
2023/10/01 12:05:47;;;;;;;8.13;6.50;;;;;;;28.31;31.72;98844.63;5034356;28;20475;-67
2023/10/01 12:08:17;;;;;;;9.20;7.10;;;;;;;28.00;32.72;98839.41;5035706;28;21160;-67